sensor_id;sensor_type;location;lat;lon;timestamp;temperature;humidity
52879;DHT22;38747;53.140;6.498;2024-01-10T00:01:44;-4.20;99.90
52879;DHT22;38747;53.140;6.498;2024-01-10T00:04:10;-4.20;99.90
52879;DHT22;38747;53.140;6.498;2024-01-10T00:06:35;-4.20;99.90
52879;DHT22;38747;53.140;6.498;2024-01-10T00:09:01;-4.20;99.90
52879;DHT22;38747;53.140;6.498;2024-01-10T00:11:27;-4.30;99.90
52879;DHT22;38747;53.140;6.498;2024-01-10T00:13:53;-4.30;99.90
52879;DHT22;38747;53.140;6.498;2024-01-10T00:16:25;-4.30;99.90
52879;DHT22;38747;53.140;6.498;2024-01-10T00:18:51;-4.30;99.90
52879;DHT22;38747;53.140;6.498;2024-01-10T00:21:16;-4.30;99.90
52879;DHT22;38747;53.140;6.498;2024-01-10T00:23:42;-4.30;99.90
52879;DHT22;38747;53.140;6.498;2024-01-10T00:26:07;-4.30;99.90
52879;DHT22;38747;53.140;6.498;2024-01-10T00:28:33;-4.30;99.90
52879;DHT22;38747;53.140;6.498;2024-01-10T00:30:58;-4.30;99.90
52879;DHT22;38747;53.140;6.498;2024-01-10T00:33:24;-4.30;99.90
52879;DHT22;38747;53.140;6.498;2024-01-10T00:35:50;-4.40;99.90
52879;DHT22;38747;53.140;6.498;2024-01-10T00:38:15;-4.40;99.90
52879;DHT22;38747;53.140;6.498;2024-01-10T00:40:41;-4.40;99.90
52879;DHT22;38747;53.140;6.498;2024-01-10T00:43:06;-4.40;99.90
52879;DHT22;38747;53.140;6.498;2024-01-10T00:45:32;-4.40;99.90
52879;DHT22;38747;53.140;6.498;2024-01-10T00:47:58;-4.40;99.90
52879;DHT22;38747;53.140;6.498;2024-01-10T00:50:23;-4.40;99.90
52879;DHT22;38747;53.140;6.498;2024-01-10T00:52:49;-4.40;99.90
52879;DHT22;38747;53.140;6.498;2024-01-10T00:55:15;-4.40;99.90
52879;DHT22;38747;53.140;6.498;2024-01-10T00:57:40;-4.40;99.90
52879;DHT22;38747;53.140;6.498;2024-01-10T01:00:09;-4.40;99.90
52879;DHT22;38747;53.140;6.498;2024-01-10T01:02:36;-4.40;99.90
52879;DHT22;38747;53.140;6.498;2024-01-10T01:05:05;-4.40;99.90
52879;DHT22;38747;53.140;6.498;2024-01-10T01:07:30;-4.40;99.90
52879;DHT22;38747;53.140;6.498;2024-01-10T01:09:56;-4.40;99.90
52879;DHT22;38747;53.140;6.498;2024-01-10T01:12:23;-4.40;99.90
52879;DHT22;38747;53.140;6.498;2024-01-10T01:14:49;-4.40;99.90
52879;DHT22;38747;53.140;6.498;2024-01-10T01:17:14;-4.40;99.80
52879;DHT22;38747;53.140;6.498;2024-01-10T01:19:40;-4.40;99.60
52879;DHT22;38747;53.140;6.498;2024-01-10T01:22:05;-4.40;99.50
52879;DHT22;38747;53.140;6.498;2024-01-10T01:24:31;-4.40;99.50
52879;DHT22;38747;53.140;6.498;2024-01-10T01:26:56;-4.40;99.30
52879;DHT22;38747;53.140;6.498;2024-01-10T01:29:22;-4.40;99.30
52879;DHT22;38747;53.140;6.498;2024-01-10T01:31:48;-4.40;99.10
52879;DHT22;38747;53.140;6.498;2024-01-10T01:34:13;-4.40;99.10
52879;DHT22;38747;53.140;6.498;2024-01-10T01:36:39;-4.40;99.10
52879;DHT22;38747;53.140;6.498;2024-01-10T01:39:05;-4.40;99.30
52879;DHT22;38747;53.140;6.498;2024-01-10T01:41:31;-4.50;99.20
52879;DHT22;38747;53.140;6.498;2024-01-10T01:43:56;-4.40;99.20
52879;DHT22;38747;53.140;6.498;2024-01-10T01:46:23;-4.40;99.40
52879;DHT22;38747;53.140;6.498;2024-01-10T01:48:49;-4.40;99.30
52879;DHT22;38747;53.140;6.498;2024-01-10T01:51:15;-4.50;99.20
52879;DHT22;38747;53.140;6.498;2024-01-10T01:53:44;-4.50;99.20
52879;DHT22;38747;53.140;6.498;2024-01-10T01:56:11;-4.40;99.30
52879;DHT22;38747;53.140;6.498;2024-01-10T01:58:39;-4.40;99.30
52879;DHT22;38747;53.140;6.498;2024-01-10T02:01:05;-4.40;99.20
52879;DHT22;38747;53.140;6.498;2024-01-10T02:03:32;-4.40;99.40
52879;DHT22;38747;53.140;6.498;2024-01-10T02:05:59;-4.50;99.40
52879;DHT22;38747;53.140;6.498;2024-01-10T02:08:25;-4.50;99.40
52879;DHT22;38747;53.140;6.498;2024-01-10T02:10:50;-4.40;99.70
52879;DHT22;38747;53.140;6.498;2024-01-10T02:13:17;-4.50;99.40
52879;DHT22;38747;53.140;6.498;2024-01-10T02:15:43;-4.40;99.70
52879;DHT22;38747;53.140;6.498;2024-01-10T02:18:09;-4.50;99.80
52879;DHT22;38747;53.140;6.498;2024-01-10T02:20:38;-4.50;99.70
52879;DHT22;38747;53.140;6.498;2024-01-10T02:23:03;-4.40;99.90
52879;DHT22;38747;53.140;6.498;2024-01-10T02:25:29;-4.40;99.90
52879;DHT22;38747;53.140;6.498;2024-01-10T02:27:55;-4.40;99.90
52879;DHT22;38747;53.140;6.498;2024-01-10T02:30:20;-4.40;99.70
52879;DHT22;38747;53.140;6.498;2024-01-10T02:32:46;-4.40;99.80
52879;DHT22;38747;53.140;6.498;2024-01-10T02:35:11;-4.40;99.50
52879;DHT22;38747;53.140;6.498;2024-01-10T02:37:37;-4.40;99.20
52879;DHT22;38747;53.140;6.498;2024-01-10T02:40:03;-4.40;99.10
52879;DHT22;38747;53.140;6.498;2024-01-10T02:42:28;-4.40;98.90
52879;DHT22;38747;53.140;6.498;2024-01-10T02:44:55;-4.40;98.70
52879;DHT22;38747;53.140;6.498;2024-01-10T02:47:21;-4.40;98.40
52879;DHT22;38747;53.140;6.498;2024-01-10T02:49:47;-4.40;98.30
52879;DHT22;38747;53.140;6.498;2024-01-10T02:52:12;-4.40;98.30
52879;DHT22;38747;53.140;6.498;2024-01-10T02:54:38;-4.40;98.00
52879;DHT22;38747;53.140;6.498;2024-01-10T02:57:04;-4.40;98.00
52879;DHT22;38747;53.140;6.498;2024-01-10T02:59:29;-4.40;98.10
52879;DHT22;38747;53.140;6.498;2024-01-10T03:01:55;-4.40;97.70
52879;DHT22;38747;53.140;6.498;2024-01-10T03:04:20;-4.30;97.50
52879;DHT22;38747;53.140;6.498;2024-01-10T03:06:46;-4.40;97.40
52879;DHT22;38747;53.140;6.498;2024-01-10T03:09:12;-4.40;97.40
52879;DHT22;38747;53.140;6.498;2024-01-10T03:11:37;-4.40;97.40
52879;DHT22;38747;53.140;6.498;2024-01-10T03:14:10;-4.30;97.60
52879;DHT22;38747;53.140;6.498;2024-01-10T03:16:37;-4.40;97.40
52879;DHT22;38747;53.140;6.498;2024-01-10T03:19:02;-4.40;97.30
52879;DHT22;38747;53.140;6.498;2024-01-10T03:21:29;-4.40;97.10
52879;DHT22;38747;53.140;6.498;2024-01-10T03:23:59;-4.40;97.20
52879;DHT22;38747;53.140;6.498;2024-01-10T03:26:28;-4.40;97.50
52879;DHT22;38747;53.140;6.498;2024-01-10T03:28:56;-4.40;97.50
52879;DHT22;38747;53.140;6.498;2024-01-10T03:31:21;-4.40;97.60
52879;DHT22;38747;53.140;6.498;2024-01-10T03:33:47;-4.40;97.50
52879;DHT22;38747;53.140;6.498;2024-01-10T03:36:17;-4.40;97.80
52879;DHT22;38747;53.140;6.498;2024-01-10T03:38:43;-4.40;98.00
52879;DHT22;38747;53.140;6.498;2024-01-10T03:41:19;-4.40;98.00
52879;DHT22;38747;53.140;6.498;2024-01-10T03:43:45;-4.50;98.20
52879;DHT22;38747;53.140;6.498;2024-01-10T03:46:12;-4.50;98.30
52879;DHT22;38747;53.140;6.498;2024-01-10T03:48:38;-4.50;98.20
52879;DHT22;38747;53.140;6.498;2024-01-10T03:51:12;-4.50;98.50
52879;DHT22;38747;53.140;6.498;2024-01-10T03:53:38;-4.50;98.30
52879;DHT22;38747;53.140;6.498;2024-01-10T03:56:06;-4.50;98.30
52879;DHT22;38747;53.140;6.498;2024-01-10T03:58:32;-4.50;98.20
52879;DHT22;38747;53.140;6.498;2024-01-10T04:00:58;-4.50;98.30
52879;DHT22;38747;53.140;6.498;2024-01-10T04:03:23;-4.50;98.10
52879;DHT22;38747;53.140;6.498;2024-01-10T04:05:49;-4.50;98.10
52879;DHT22;38747;53.140;6.498;2024-01-10T04:08:14;-4.50;98.00
52879;DHT22;38747;53.140;6.498;2024-01-10T04:10:41;-4.50;98.10
52879;DHT22;38747;53.140;6.498;2024-01-10T04:13:06;-4.50;98.40
52879;DHT22;38747;53.140;6.498;2024-01-10T04:15:32;-4.50;98.50
52879;DHT22;38747;53.140;6.498;2024-01-10T04:17:57;-4.50;98.60
52879;DHT22;38747;53.140;6.498;2024-01-10T04:20:23;-4.50;98.60
52879;DHT22;38747;53.140;6.498;2024-01-10T04:22:48;-4.50;98.60
52879;DHT22;38747;53.140;6.498;2024-01-10T04:25:14;-4.50;98.70
52879;DHT22;38747;53.140;6.498;2024-01-10T04:27:40;-4.50;98.50
52879;DHT22;38747;53.140;6.498;2024-01-10T04:30:06;-4.50;98.80
52879;DHT22;38747;53.140;6.498;2024-01-10T04:32:31;-4.50;99.40
52879;DHT22;38747;53.140;6.498;2024-01-10T04:34:57;-4.50;99.00
52879;DHT22;38747;53.140;6.498;2024-01-10T04:37:23;-4.50;98.70
52879;DHT22;38747;53.140;6.498;2024-01-10T04:39:48;-4.50;98.30
52879;DHT22;38747;53.140;6.498;2024-01-10T04:42:14;-4.50;98.80
52879;DHT22;38747;53.140;6.498;2024-01-10T04:44:40;-4.50;98.50
52879;DHT22;38747;53.140;6.498;2024-01-10T04:47:07;-4.50;98.30
52879;DHT22;38747;53.140;6.498;2024-01-10T04:49:33;-4.50;98.60
52879;DHT22;38747;53.140;6.498;2024-01-10T04:51:58;-4.50;98.40
52879;DHT22;38747;53.140;6.498;2024-01-10T04:54:24;-4.50;98.60
52879;DHT22;38747;53.140;6.498;2024-01-10T04:56:50;-4.50;98.40
52879;DHT22;38747;53.140;6.498;2024-01-10T04:59:15;-4.50;98.50
52879;DHT22;38747;53.140;6.498;2024-01-10T05:01:41;-4.50;98.50
52879;DHT22;38747;53.140;6.498;2024-01-10T05:04:07;-4.50;99.20
52879;DHT22;38747;53.140;6.498;2024-01-10T05:06:32;-4.50;99.20
52879;DHT22;38747;53.140;6.498;2024-01-10T05:08:58;-4.50;99.20
52879;DHT22;38747;53.140;6.498;2024-01-10T05:11:24;-4.50;99.20
52879;DHT22;38747;53.140;6.498;2024-01-10T05:13:53;-4.50;98.80
52879;DHT22;38747;53.140;6.498;2024-01-10T05:16:19;-4.50;98.40
52879;DHT22;38747;53.140;6.498;2024-01-10T05:18:45;-4.50;98.00
52879;DHT22;38747;53.140;6.498;2024-01-10T05:21:10;-4.50;97.70
52879;DHT22;38747;53.140;6.498;2024-01-10T05:23:36;-4.50;97.70
52879;DHT22;38747;53.140;6.498;2024-01-10T05:26:04;-4.50;97.60
52879;DHT22;38747;53.140;6.498;2024-01-10T05:28:30;-4.60;97.50
52879;DHT22;38747;53.140;6.498;2024-01-10T05:30:55;-4.60;97.60
52879;DHT22;38747;53.140;6.498;2024-01-10T05:33:21;-4.60;97.70
52879;DHT22;38747;53.140;6.498;2024-01-10T05:35:46;-4.60;97.80
52879;DHT22;38747;53.140;6.498;2024-01-10T05:38:12;-4.60;97.90
52879;DHT22;38747;53.140;6.498;2024-01-10T05:40:38;-4.60;98.10
52879;DHT22;38747;53.140;6.498;2024-01-10T05:43:03;-4.60;98.30
52879;DHT22;38747;53.140;6.498;2024-01-10T05:45:29;-4.60;98.60
52879;DHT22;38747;53.140;6.498;2024-01-10T05:47:56;-4.60;98.60
52879;DHT22;38747;53.140;6.498;2024-01-10T05:50:22;-4.70;98.90
52879;DHT22;38747;53.140;6.498;2024-01-10T05:52:47;-4.70;98.50
52879;DHT22;38747;53.140;6.498;2024-01-10T05:55:13;-4.70;98.80
52879;DHT22;38747;53.140;6.498;2024-01-10T05:57:39;-4.70;99.00
52879;DHT22;38747;53.140;6.498;2024-01-10T06:00:06;-4.70;98.90
52879;DHT22;38747;53.140;6.498;2024-01-10T06:02:41;-4.80;99.00
52879;DHT22;38747;53.140;6.498;2024-01-10T06:05:09;-4.80;99.20
52879;DHT22;38747;53.140;6.498;2024-01-10T06:07:38;-4.80;99.50
52879;DHT22;38747;53.140;6.498;2024-01-10T06:10:05;-4.80;99.70
52879;DHT22;38747;53.140;6.498;2024-01-10T06:12:31;-4.80;99.90
52879;DHT22;38747;53.140;6.498;2024-01-10T06:14:57;-4.80;99.80
52879;DHT22;38747;53.140;6.498;2024-01-10T06:17:23;-4.80;99.90
52879;DHT22;38747;53.140;6.498;2024-01-10T06:19:49;-4.80;99.90
52879;DHT22;38747;53.140;6.498;2024-01-10T06:22:15;-4.80;99.90
52879;DHT22;38747;53.140;6.498;2024-01-10T06:24:42;-4.80;99.90
52879;DHT22;38747;53.140;6.498;2024-01-10T06:27:08;-4.80;99.90
52879;DHT22;38747;53.140;6.498;2024-01-10T06:29:33;-4.80;99.90
52879;DHT22;38747;53.140;6.498;2024-01-10T06:31:59;-4.80;99.90
52879;DHT22;38747;53.140;6.498;2024-01-10T06:34:27;-4.80;99.90
52879;DHT22;38747;53.140;6.498;2024-01-10T06:36:53;-4.80;99.70
52879;DHT22;38747;53.140;6.498;2024-01-10T06:39:18;-4.80;99.40
52879;DHT22;38747;53.140;6.498;2024-01-10T06:41:47;-4.80;99.40
52879;DHT22;38747;53.140;6.498;2024-01-10T06:44:12;-4.80;99.60
52879;DHT22;38747;53.140;6.498;2024-01-10T06:46:38;-4.80;99.60
52879;DHT22;38747;53.140;6.498;2024-01-10T06:49:03;-4.80;99.80
52879;DHT22;38747;53.140;6.498;2024-01-10T06:51:29;-4.80;99.90
52879;DHT22;38747;53.140;6.498;2024-01-10T06:53:55;-4.80;99.90
52879;DHT22;38747;53.140;6.498;2024-01-10T06:56:28;-4.80;99.90
52879;DHT22;38747;53.140;6.498;2024-01-10T06:58:53;-4.80;99.90
52879;DHT22;38747;53.140;6.498;2024-01-10T07:01:20;-4.80;99.90
52879;DHT22;38747;53.140;6.498;2024-01-10T07:03:47;-4.90;99.90
52879;DHT22;38747;53.140;6.498;2024-01-10T07:06:13;-4.80;99.90
52879;DHT22;38747;53.140;6.498;2024-01-10T07:08:42;-4.80;99.90
52879;DHT22;38747;53.140;6.498;2024-01-10T07:11:08;-4.80;99.90
52879;DHT22;38747;53.140;6.498;2024-01-10T07:13:34;-4.90;99.90
52879;DHT22;38747;53.140;6.498;2024-01-10T07:16:00;-4.90;99.80
52879;DHT22;38747;53.140;6.498;2024-01-10T07:18:28;-4.90;99.60
52879;DHT22;38747;53.140;6.498;2024-01-10T07:20:54;-4.90;99.20
52879;DHT22;38747;53.140;6.498;2024-01-10T07:23:19;-4.90;98.60
52879;DHT22;38747;53.140;6.498;2024-01-10T07:25:45;-4.90;98.70
52879;DHT22;38747;53.140;6.498;2024-01-10T07:28:11;-4.90;97.90
52879;DHT22;38747;53.140;6.498;2024-01-10T07:30:36;-4.90;97.50
52879;DHT22;38747;53.140;6.498;2024-01-10T07:33:02;-4.90;97.40
52879;DHT22;38747;53.140;6.498;2024-01-10T07:35:28;-4.90;97.70
52879;DHT22;38747;53.140;6.498;2024-01-10T07:37:54;-4.90;97.00
52879;DHT22;38747;53.140;6.498;2024-01-10T07:40:20;-4.90;96.90
52879;DHT22;38747;53.140;6.498;2024-01-10T07:42:46;-4.90;96.80
52879;DHT22;38747;53.140;6.498;2024-01-10T07:45:11;-4.90;95.80
52879;DHT22;38747;53.140;6.498;2024-01-10T07:47:37;-4.90;95.50
52879;DHT22;38747;53.140;6.498;2024-01-10T07:50:07;-4.90;96.10
52879;DHT22;38747;53.140;6.498;2024-01-10T07:52:33;-4.90;96.20
52879;DHT22;38747;53.140;6.498;2024-01-10T07:55:00;-4.90;96.30
52879;DHT22;38747;53.140;6.498;2024-01-10T07:57:26;-4.90;95.80
52879;DHT22;38747;53.140;6.498;2024-01-10T07:59:52;-5.00;96.00
52879;DHT22;38747;53.140;6.498;2024-01-10T08:02:18;-5.00;95.60
52879;DHT22;38747;53.140;6.498;2024-01-10T08:04:44;-5.00;95.90
52879;DHT22;38747;53.140;6.498;2024-01-10T08:07:09;-4.90;95.80
52879;DHT22;38747;53.140;6.498;2024-01-10T08:09:35;-4.90;95.70
52879;DHT22;38747;53.140;6.498;2024-01-10T08:12:02;-4.90;95.70
52879;DHT22;38747;53.140;6.498;2024-01-10T08:14:28;-4.90;95.60
52879;DHT22;38747;53.140;6.498;2024-01-10T08:16:54;-4.90;94.90
52879;DHT22;38747;53.140;6.498;2024-01-10T08:19:26;-4.90;94.60
52879;DHT22;38747;53.140;6.498;2024-01-10T08:21:55;-4.90;95.40
52879;DHT22;38747;53.140;6.498;2024-01-10T08:24:22;-4.90;94.00
52879;DHT22;38747;53.140;6.498;2024-01-10T08:26:48;-4.90;92.60
52879;DHT22;38747;53.140;6.498;2024-01-10T08:29:18;-4.80;91.10
52879;DHT22;38747;53.140;6.498;2024-01-10T08:31:44;-4.80;92.50
52879;DHT22;38747;53.140;6.498;2024-01-10T08:34:10;-4.70;93.70
52879;DHT22;38747;53.140;6.498;2024-01-10T08:36:36;-4.70;92.50
52879;DHT22;38747;53.140;6.498;2024-01-10T08:39:02;-4.70;92.20
52879;DHT22;38747;53.140;6.498;2024-01-10T08:41:29;-4.70;92.60
52879;DHT22;38747;53.140;6.498;2024-01-10T08:43:55;-4.60;92.10
52879;DHT22;38747;53.140;6.498;2024-01-10T08:46:21;-4.60;92.00
52879;DHT22;38747;53.140;6.498;2024-01-10T08:48:46;-4.50;91.30
52879;DHT22;38747;53.140;6.498;2024-01-10T08:51:13;-4.50;91.50
52879;DHT22;38747;53.140;6.498;2024-01-10T08:53:41;-4.50;90.80
52879;DHT22;38747;53.140;6.498;2024-01-10T08:56:07;-4.50;90.30
52879;DHT22;38747;53.140;6.498;2024-01-10T08:58:33;-4.40;91.20
52879;DHT22;38747;53.140;6.498;2024-01-10T09:00:59;-4.40;92.70
52879;DHT22;38747;53.140;6.498;2024-01-10T09:03:24;-4.30;91.60
52879;DHT22;38747;53.140;6.498;2024-01-10T09:05:52;-4.30;91.60
52879;DHT22;38747;53.140;6.498;2024-01-10T09:08:18;-4.20;91.60
52879;DHT22;38747;53.140;6.498;2024-01-10T09:10:44;-4.20;90.60
52879;DHT22;38747;53.140;6.498;2024-01-10T09:13:09;-4.20;90.30
52879;DHT22;38747;53.140;6.498;2024-01-10T09:15:35;-4.10;88.60
52879;DHT22;38747;53.140;6.498;2024-01-10T09:18:00;-4.10;83.00
52879;DHT22;38747;53.140;6.498;2024-01-10T09:20:26;-4.00;84.60
52879;DHT22;38747;53.140;6.498;2024-01-10T09:22:52;-4.00;88.10
52879;DHT22;38747;53.140;6.498;2024-01-10T09:25:18;-3.90;86.30
52879;DHT22;38747;53.140;6.498;2024-01-10T09:27:44;-3.80;86.10
52879;DHT22;38747;53.140;6.498;2024-01-10T09:30:10;-3.80;82.00
52879;DHT22;38747;53.140;6.498;2024-01-10T09:32:37;-3.80;84.00
52879;DHT22;38747;53.140;6.498;2024-01-10T09:35:03;-3.70;84.00
52879;DHT22;38747;53.140;6.498;2024-01-10T09:37:29;-3.70;80.40
52879;DHT22;38747;53.140;6.498;2024-01-10T09:39:55;-3.70;76.90
52879;DHT22;38747;53.140;6.498;2024-01-10T09:42:21;-3.60;74.70
52879;DHT22;38747;53.140;6.498;2024-01-10T09:44:51;-3.60;75.50
52879;DHT22;38747;53.140;6.498;2024-01-10T09:47:18;-3.50;79.90
52879;DHT22;38747;53.140;6.498;2024-01-10T09:49:45;-3.50;82.20
52879;DHT22;38747;53.140;6.498;2024-01-10T09:52:20;-3.40;85.10
52879;DHT22;38747;53.140;6.498;2024-01-10T09:54:56;-3.40;78.90
52879;DHT22;38747;53.140;6.498;2024-01-10T09:57:23;-3.40;77.00
52879;DHT22;38747;53.140;6.498;2024-01-10T09:59:50;-3.40;67.90
52879;DHT22;38747;53.140;6.498;2024-01-10T10:02:18;-3.40;47.60
52879;DHT22;38747;53.140;6.498;2024-01-10T10:04:54;-3.40;54.90
52879;DHT22;38747;53.140;6.498;2024-01-10T10:07:21;-3.30;61.70
52879;DHT22;38747;53.140;6.498;2024-01-10T10:09:47;-3.30;72.30
52879;DHT22;38747;53.140;6.498;2024-01-10T10:12:12;-3.20;64.20
52879;DHT22;38747;53.140;6.498;2024-01-10T10:14:38;-3.20;70.70
52879;DHT22;38747;53.140;6.498;2024-01-10T10:17:19;-3.20;62.50
52879;DHT22;38747;53.140;6.498;2024-01-10T10:19:44;-3.10;66.30
52879;DHT22;38747;53.140;6.498;2024-01-10T10:22:10;-3.10;61.00
52879;DHT22;38747;53.140;6.498;2024-01-10T10:24:37;-3.10;55.50
52879;DHT22;38747;53.140;6.498;2024-01-10T10:27:11;-3.10;54.10
52879;DHT22;38747;53.140;6.498;2024-01-10T10:29:37;-3.00;43.60
52879;DHT22;38747;53.140;6.498;2024-01-10T10:32:03;-3.00;38.70
52879;DHT22;38747;53.140;6.498;2024-01-10T10:34:33;-2.90;42.90
52879;DHT22;38747;53.140;6.498;2024-01-10T10:36:59;-2.90;45.40
52879;DHT22;38747;53.140;6.498;2024-01-10T10:39:25;-2.90;44.70
52879;DHT22;38747;53.140;6.498;2024-01-10T10:41:51;-2.80;46.10
52879;DHT22;38747;53.140;6.498;2024-01-10T10:44:23;-2.80;46.60
52879;DHT22;38747;53.140;6.498;2024-01-10T10:46:59;-2.80;38.60
52879;DHT22;38747;53.140;6.498;2024-01-10T10:49:28;-2.70;31.10
52879;DHT22;38747;53.140;6.498;2024-01-10T10:51:58;-2.70;41.40
52879;DHT22;38747;53.140;6.498;2024-01-10T10:54:28;-2.70;24.50
52879;DHT22;38747;53.140;6.498;2024-01-10T10:56:57;-2.60;33.60
52879;DHT22;38747;53.140;6.498;2024-01-10T10:59:26;-2.60;41.20
52879;DHT22;38747;53.140;6.498;2024-01-10T11:01:53;-2.60;27.10
52879;DHT22;38747;53.140;6.498;2024-01-10T11:04:21;-2.50;41.50
52879;DHT22;38747;53.140;6.498;2024-01-10T11:06:46;-2.40;51.90
52879;DHT22;38747;53.140;6.498;2024-01-10T11:09:15;-2.40;46.20
52879;DHT22;38747;53.140;6.498;2024-01-10T11:11:49;-2.40;50.60
52879;DHT22;38747;53.140;6.498;2024-01-10T11:17:18;-2.40;33.10
52879;DHT22;38747;53.140;6.498;2024-01-10T11:19:53;-2.30;16.10
52879;DHT22;38747;53.140;6.498;2024-01-10T11:23:01;-2.30;34.90
52879;DHT22;38747;53.140;6.498;2024-01-10T11:25:30;-2.20;29.90
52879;DHT22;38747;53.140;6.498;2024-01-10T11:27:56;-2.20;33.00
52879;DHT22;38747;53.140;6.498;2024-01-10T11:30:49;-2.20;15.90
52879;DHT22;38747;53.140;6.498;2024-01-10T11:33:36;-2.20;31.40
52879;DHT22;38747;53.140;6.498;2024-01-10T11:36:11;-2.10;19.40
52879;DHT22;38747;53.140;6.498;2024-01-10T11:38:58;-2.10;19.30
52879;DHT22;38747;53.140;6.498;2024-01-10T11:41:32;-2.10;36.70
52879;DHT22;38747;53.140;6.498;2024-01-10T11:46:42;-2.00;33.80
52879;DHT22;38747;53.140;6.498;2024-01-10T11:49:09;-2.00;40.30
52879;DHT22;38747;53.140;6.498;2024-01-10T11:51:38;-2.00;16.10
52879;DHT22;38747;53.140;6.498;2024-01-10T11:54:04;-1.90;32.00
52879;DHT22;38747;53.140;6.498;2024-01-10T11:56:41;-1.90;30.90
52879;DHT22;38747;53.140;6.498;2024-01-10T11:59:09;-1.90;30.30
52879;DHT22;38747;53.140;6.498;2024-01-10T12:01:37;-1.90;43.60
52879;DHT22;38747;53.140;6.498;2024-01-10T12:04:04;-1.80;44.50
52879;DHT22;38747;53.140;6.498;2024-01-10T12:06:31;-1.80;47.00
52879;DHT22;38747;53.140;6.498;2024-01-10T12:08:57;-1.80;38.00
52879;DHT22;38747;53.140;6.498;2024-01-10T12:11:23;-1.80;36.60
52879;DHT22;38747;53.140;6.498;2024-01-10T12:13:49;-1.70;41.00
52879;DHT22;38747;53.140;6.498;2024-01-10T12:16:15;-1.70;32.80
52879;DHT22;38747;53.140;6.498;2024-01-10T12:18:44;-1.60;31.40
52879;DHT22;38747;53.140;6.498;2024-01-10T12:21:10;-1.60;8.60
52879;DHT22;38747;53.140;6.498;2024-01-10T12:23:38;-1.60;24.00
52879;DHT22;38747;53.140;6.498;2024-01-10T12:26:07;-1.50;29.20
52879;DHT22;38747;53.140;6.498;2024-01-10T12:28:35;-1.50;25.10
52879;DHT22;38747;53.140;6.498;2024-01-10T12:31:02;-1.50;29.40
52879;DHT22;38747;53.140;6.498;2024-01-10T12:33:28;-1.50;16.50
52879;DHT22;38747;53.140;6.498;2024-01-10T12:36:04;-1.40;29.80
52879;DHT22;38747;53.140;6.498;2024-01-10T12:38:30;-1.40;31.30
52879;DHT22;38747;53.140;6.498;2024-01-10T12:40:57;-1.30;27.30
52879;DHT22;38747;53.140;6.498;2024-01-10T12:43:23;-1.30;33.70
52879;DHT22;38747;53.140;6.498;2024-01-10T12:46:06;-1.30;42.00
52879;DHT22;38747;53.140;6.498;2024-01-10T12:48:32;-1.30;30.50
52879;DHT22;38747;53.140;6.498;2024-01-10T12:51:11;-1.20;40.90
52879;DHT22;38747;53.140;6.498;2024-01-10T12:53:42;-1.20;43.30
52879;DHT22;38747;53.140;6.498;2024-01-10T12:56:09;-1.10;34.90
52879;DHT22;38747;53.140;6.498;2024-01-10T12:58:37;-1.10;8.40
52879;DHT22;38747;53.140;6.498;2024-01-10T13:01:03;-1.10;16.40
52879;DHT22;38747;53.140;6.498;2024-01-10T13:03:29;-1.10;26.90
52879;DHT22;38747;53.140;6.498;2024-01-10T13:05:55;-1.10;23.20
52879;DHT22;38747;53.140;6.498;2024-01-10T13:08:21;-1.00;22.60
52879;DHT22;38747;53.140;6.498;2024-01-10T13:10:47;-1.00;1.00
52879;DHT22;38747;53.140;6.498;2024-01-10T13:13:13;-1.00;26.00
52879;DHT22;38747;53.140;6.498;2024-01-10T13:15:39;-1.00;21.10
52879;DHT22;38747;53.140;6.498;2024-01-10T13:18:05;-1.00;24.30
52879;DHT22;38747;53.140;6.498;2024-01-10T13:20:32;-0.90;26.50
52879;DHT22;38747;53.140;6.498;2024-01-10T13:22:57;-1.00;5.20
52879;DHT22;38747;53.140;6.498;2024-01-10T13:25:23;-1.00;1.00
52879;DHT22;38747;53.140;6.498;2024-01-10T13:27:52;-1.00;1.00
52879;DHT22;38747;53.140;6.498;2024-01-10T13:30:18;-0.90;13.70
52879;DHT22;38747;53.140;6.498;2024-01-10T13:32:45;-1.00;1.00
52879;DHT22;38747;53.140;6.498;2024-01-10T13:35:15;-0.90;1.00
52879;DHT22;38747;53.140;6.498;2024-01-10T13:37:45;-0.90;1.00
52879;DHT22;38747;53.140;6.498;2024-01-10T13:40:12;-0.90;1.00
52879;DHT22;38747;53.140;6.498;2024-01-10T13:42:40;-0.90;1.00
52879;DHT22;38747;53.140;6.498;2024-01-10T13:45:07;-1.00;1.00
52879;DHT22;38747;53.140;6.498;2024-01-10T13:47:33;-1.00;1.00
52879;DHT22;38747;53.140;6.498;2024-01-10T13:50:00;-1.00;1.00
52879;DHT22;38747;53.140;6.498;2024-01-10T13:52:26;-1.00;1.00
52879;DHT22;38747;53.140;6.498;2024-01-10T13:54:54;-1.10;1.00
52879;DHT22;38747;53.140;6.498;2024-01-10T13:57:24;-1.10;1.00
52879;DHT22;38747;53.140;6.498;2024-01-10T13:59:50;-1.10;1.00
52879;DHT22;38747;53.140;6.498;2024-01-10T14:02:16;-1.10;1.00
52879;DHT22;38747;53.140;6.498;2024-01-10T14:04:44;-1.10;1.00
52879;DHT22;38747;53.140;6.498;2024-01-10T14:07:10;-1.10;1.00
52879;DHT22;38747;53.140;6.498;2024-01-10T14:09:36;-1.10;1.00
52879;DHT22;38747;53.140;6.498;2024-01-10T14:12:05;-1.10;1.00
52879;DHT22;38747;53.140;6.498;2024-01-10T14:14:31;-1.10;1.00
52879;DHT22;38747;53.140;6.498;2024-01-10T14:16:59;-1.10;1.00
52879;DHT22;38747;53.140;6.498;2024-01-10T14:19:25;-1.20;1.00
52879;DHT22;38747;53.140;6.498;2024-01-10T14:21:51;-1.20;1.00
52879;DHT22;38747;53.140;6.498;2024-01-10T14:24:17;-1.20;1.00
52879;DHT22;38747;53.140;6.498;2024-01-10T14:26:43;-1.20;1.00
52879;DHT22;38747;53.140;6.498;2024-01-10T14:29:09;-1.20;1.00
52879;DHT22;38747;53.140;6.498;2024-01-10T14:31:36;-1.20;1.00
52879;DHT22;38747;53.140;6.498;2024-01-10T14:34:02;-1.30;1.00
52879;DHT22;38747;53.140;6.498;2024-01-10T14:36:27;-1.30;1.00
52879;DHT22;38747;53.140;6.498;2024-01-10T14:38:53;-1.30;1.00
52879;DHT22;38747;53.140;6.498;2024-01-10T14:41:20;-1.30;1.00
52879;DHT22;38747;53.140;6.498;2024-01-10T14:43:46;-1.30;1.00
52879;DHT22;38747;53.140;6.498;2024-01-10T14:46:12;-1.30;1.00
52879;DHT22;38747;53.140;6.498;2024-01-10T14:48:37;-1.30;1.00
52879;DHT22;38747;53.140;6.498;2024-01-10T14:51:03;-1.40;1.00
52879;DHT22;38747;53.140;6.498;2024-01-10T14:53:31;-1.30;1.00
52879;DHT22;38747;53.140;6.498;2024-01-10T14:55:57;-1.30;1.00
52879;DHT22;38747;53.140;6.498;2024-01-10T14:58:23;-1.40;1.00
52879;DHT22;38747;53.140;6.498;2024-01-10T15:00:49;-1.40;1.00
52879;DHT22;38747;53.140;6.498;2024-01-10T15:03:18;-1.40;1.00
52879;DHT22;38747;53.140;6.498;2024-01-10T15:05:44;-1.40;1.00
52879;DHT22;38747;53.140;6.498;2024-01-10T15:08:10;-1.50;1.00
52879;DHT22;38747;53.140;6.498;2024-01-10T15:10:38;-1.50;1.00
52879;DHT22;38747;53.140;6.498;2024-01-10T15:13:12;-1.50;1.00
52879;DHT22;38747;53.140;6.498;2024-01-10T15:15:39;-1.50;1.00
52879;DHT22;38747;53.140;6.498;2024-01-10T15:18:07;-1.60;1.00
52879;DHT22;38747;53.140;6.498;2024-01-10T15:20:33;-1.60;1.00
52879;DHT22;38747;53.140;6.498;2024-01-10T15:22:59;-1.70;1.00
52879;DHT22;38747;53.140;6.498;2024-01-10T15:25:30;-1.70;1.00
52879;DHT22;38747;53.140;6.498;2024-01-10T15:27:56;-1.70;1.00
52879;DHT22;38747;53.140;6.498;2024-01-10T15:30:21;-1.80;1.00
52879;DHT22;38747;53.140;6.498;2024-01-10T15:32:49;-1.80;1.00
52879;DHT22;38747;53.140;6.498;2024-01-10T15:35:15;-1.80;1.00
52879;DHT22;38747;53.140;6.498;2024-01-10T15:37:42;-1.90;1.00